Time;durP1;ratioP1;P1;durP2;ratioP2;P2;SDS_P1;SDS_P2;PMS_P1;PMS_P2;Temp;Humidity;BMP_temperature;BMP_pressure;BME280_temperature;BME280_humidity;BME280_pressure;Samples;Min_cycle;Max_cycle;Signal;HPM_P1;HPM_P2
2022/01/02 00:00:10;;;;;;;13.93;6.90;;;11.10;99.90;;;;;;5067259;28;20545;-87
2022/01/02 00:02:37;;;;;;;15.32;6.72;;;11.10;99.90;;;;;;5064708;28;20046;-86
2022/01/02 00:05:08;;;;;;;16.08;6.93;;;11.10;99.90;;;;;;5061171;27;20429;-86
2022/01/02 00:07:42;;;;;;;16.48;7.13;;;11.00;99.90;;;;;;5072434;27;20470;-87
2022/01/02 00:10:09;;;;;;;18.08;6.50;;;11.00;99.90;;;;;;5079612;27;20050;-88
2022/01/02 00:12:35;;;;;;;16.80;7.28;;;11.40;99.90;;;;;;5081264;27;20495;-86
2022/01/02 00:15:06;;;;;;;18.65;6.63;;;11.30;99.90;;;;;;5084364;27;20430;-86
2022/01/02 00:17:33;;;;;;;14.80;6.90;;;11.10;99.90;;;;;;5105370;27;20046;-87
2022/01/02 00:20:08;;;;;;;19.20;7.13;;;11.10;99.90;;;;;;5090747;27;20055;-85
2022/01/02 00:22:37;;;;;;;15.35;6.47;;;11.10;99.90;;;;;;5085795;27;20039;-86
2022/01/02 00:25:08;;;;;;;17.52;8.07;;;11.10;99.90;;;;;;5089634;27;20058;-86
2022/01/02 00:27:37;;;;;;;19.42;7.68;;;11.10;99.90;;;;;;5106191;27;20043;-85
2022/01/02 00:30:06;;;;;;;16.25;6.72;;;11.10;99.90;;;;;;5107621;27;20069;-85
2022/01/02 00:32:35;;;;;;;19.20;7.38;;;11.10;99.90;;;;;;5094820;27;20440;-86
2022/01/02 00:35:01;;;;;;;19.73;7.38;;;11.10;99.90;;;;;;5092557;27;20077;-87
2022/01/02 00:37:27;;;;;;;17.77;7.20;;;11.10;99.90;;;;;;5092700;27;20039;-87
2022/01/02 00:39:53;;;;;;;15.07;7.07;;;11.00;99.90;;;;;;5113269;27;20034;-86
2022/01/02 00:42:31;;;;;;;14.10;6.43;;;11.10;99.90;;;;;;5092041;27;20179;-86
2022/01/02 00:45:07;;;;;;;15.57;7.00;;;11.10;99.90;;;;;;5121643;27;20046;-86
2022/01/02 00:47:36;;;;;;;15.27;6.57;;;11.10;99.90;;;;;;5123320;27;20076;-85
2022/01/02 00:50:09;;;;;;;18.48;7.47;;;11.10;99.90;;;;;;5109919;27;20053;-86
2022/01/02 00:52:42;;;;;;;20.50;7.25;;;11.10;99.90;;;;;;5110900;28;20038;-87
2022/01/02 00:55:11;;;;;;;16.05;6.65;;;11.20;99.90;;;;;;5091724;28;21265;-88
2022/01/02 00:57:39;;;;;;;18.27;6.65;;;11.10;99.90;;;;;;5090978;28;20514;-87
2022/01/02 01:00:14;;;;;;;18.27;7.30;;;11.10;99.90;;;;;;5127554;27;20039;-87
2022/01/02 01:02:50;;;;;;;16.13;7.20;;;11.10;99.90;;;;;;5084828;28;20063;-86
2022/01/02 01:05:25;;;;;;;15.25;6.97;;;11.10;99.90;;;;;;5126677;27;20061;-86
2022/01/02 01:07:56;;;;;;;16.15;7.13;;;11.50;99.90;;;;;;5099610;28;20070;-86
2022/01/02 01:10:23;;;;;;;18.25;7.20;;;11.00;99.90;;;;;;5090974;28;20043;-86
2022/01/02 01:12:52;;;;;;;20.58;7.63;;;11.00;99.90;;;;;;5108221;28;20043;-89
2022/01/02 01:15:19;;;;;;;21.35;7.80;;;11.00;99.90;;;;;;5108403;27;20058;-86
2022/01/02 01:17:45;;;;;;;19.08;7.18;;;11.00;99.90;;;;;;5090732;28;20046;-87
2022/01/02 01:20:13;;;;;;;18.17;7.30;;;11.00;99.90;;;;;;5108385;28;20066;-86
2022/01/02 01:22:40;;;;;;;19.65;7.60;;;11.00;99.90;;;;;;5110032;27;20116;-86
2022/01/02 01:25:11;;;;;;;17.40;8.10;;;11.00;99.90;;;;;;5111802;27;20124;-85
2022/01/02 01:27:37;;;;;;;20.60;7.63;;;11.00;99.90;;;;;;5126573;27;20051;-85
2022/01/02 01:30:04;;;;;;;21.65;7.38;;;11.00;99.90;;;;;;5111713;27;20063;-85
2022/01/02 01:32:30;;;;;;;16.15;8.57;;;11.00;99.90;;;;;;5086087;27;20137;-86
2022/01/02 01:34:55;;;;;;;21.42;8.25;;;11.00;99.90;;;;;;5111043;27;20134;-87
2022/01/02 01:37:21;;;;;;;20.15;7.90;;;11.10;99.90;;;;;;5090723;27;20039;-86
2022/01/02 01:39:46;;;;;;;20.05;8.15;;;11.10;99.90;;;;;;5087394;27;20058;-86
2022/01/02 01:42:12;;;;;;;16.45;7.63;;;11.10;99.90;;;;;;5093465;27;20180;-87
2022/01/02 01:47:13;;;;;;;22.98;8.13;;;11.10;99.90;;;;;;5118342;27;20054;-86
2022/01/02 01:49:39;;;;;;;24.35;7.82;;;11.10;99.90;;;;;;5112038;27;20047;-86
2022/01/02 01:52:05;;;;;;;21.58;8.75;;;11.00;99.90;;;;;;5112530;27;20058;-88
2022/01/02 01:54:31;;;;;;;21.65;8.23;;;11.40;99.90;;;;;;5095553;27;20470;-89
2022/01/02 01:56:57;;;;;;;19.10;8.80;;;11.00;99.90;;;;;;5112879;27;20419;-87
2022/01/02 01:59:23;;;;;;;19.08;8.57;;;11.00;99.90;;;;;;5113026;27;20507;-87
2022/01/02 02:01:49;;;;;;;22.30;8.48;;;11.10;99.90;;;;;;5093694;27;20073;-87
2022/01/02 02:04:16;;;;;;;18.08;8.32;;;11.00;99.90;;;;;;5096287;27;20062;-87
2022/01/02 02:06:43;;;;;;;18.58;9.15;;;11.10;99.90;;;;;;5109926;27;20161;-87
2022/01/02 02:09:09;;;;;;;21.50;9.48;;;11.00;99.90;;;;;;5094700;27;20038;-88
2022/01/02 02:11:39;;;;;;;25.50;9.52;;;11.10;99.90;;;;;;5110323;27;20031;-86
2022/01/02 02:14:07;;;;;;;20.30;9.85;;;11.00;99.90;;;;;;5129423;27;20039;-88
2022/01/02 02:16:36;;;;;;;21.60;10.52;;;11.30;99.90;;;;;;5094156;27;20039;-87
2022/01/02 02:19:03;;;;;;;23.80;9.20;;;11.00;99.90;;;;;;5111895;27;20043;-88
2022/01/02 02:21:37;;;;;;;20.88;9.88;;;11.20;99.90;;;;;;5112249;27;20077;-87
2022/01/02 02:24:05;;;;;;;26.65;9.88;;;11.00;99.90;;;;;;5109146;27;20215;-87
2022/01/02 02:26:33;;;;;;;25.42;9.85;;;11.10;99.90;;;;;;5089823;27;20039;-85
2022/01/02 02:28:59;;;;;;;24.30;10.40;;;11.00;99.90;;;;;;5092481;27;20082;-86
2022/01/02 02:31:24;;;;;;;31.15;10.57;;;11.00;99.90;;;;;;5098030;27;20065;-85
2022/01/02 02:33:53;;;;;;;21.60;10.63;;;11.00;99.90;;;;;;5109748;27;20403;-84
2022/01/02 02:36:19;;;;;;;28.90;10.48;;;11.00;99.90;;;;;;5092792;27;20078;-85
2022/01/02 02:38:45;;;;;;;34.95;11.38;;;11.00;99.90;;;;;;5093930;27;20067;-83
2022/01/02 02:41:11;;;;;;;24.58;10.10;;;10.90;99.90;;;;;;5093978;27;20487;-84
2022/01/02 02:44:21;;;;;;;22.20;9.98;;;10.90;99.90;;;;;;5105790;27;20035;-83
2022/01/02 02:49:13;;;;;;;28.63;10.98;;;10.90;99.90;;;;;;5129093;27;20054;-83
2022/01/02 02:54:25;;;;;;;25.98;11.80;;;10.90;99.90;;;;;;5116498;27;20510;-83
2022/01/02 02:57:01;;;;;;;22.63;10.93;;;11.00;99.90;;;;;;5092619;27;20537;-83
2022/01/02 02:59:29;;;;;;;25.63;10.82;;;10.90;99.90;;;;;;5127811;27;20122;-83
2022/01/02 03:01:56;;;;;;;25.25;10.73;;;10.90;99.90;;;;;;5109557;27;20049;-84
2022/01/02 03:04:23;;;;;;;30.38;10.88;;;10.90;99.90;;;;;;5108172;27;20039;-83
2022/01/02 03:06:49;;;;;;;29.20;11.73;;;10.90;99.90;;;;;;5109688;27;20170;-83
2022/01/02 03:09:18;;;;;;;27.23;10.25;;;10.90;99.90;;;;;;5093612;28;20118;-84
2022/01/02 03:11:44;;;;;;;19.60;10.27;;;11.00;99.90;;;;;;5088386;28;20040;-83
2022/01/02 03:14:12;;;;;;;41.92;12.07;;;10.80;99.90;;;;;;5073452;28;20042;-84
2022/01/02 03:16:41;;;;;;;20.48;10.65;;;10.80;99.90;;;;;;5120776;27;20682;-83
2022/01/02 03:19:07;;;;;;;24.35;11.32;;;10.80;99.90;;;;;;5074479;28;20067;-83
2022/01/02 03:21:32;;;;;;;24.58;10.43;;;10.80;99.90;;;;;;5107416;28;20093;-84
2022/01/02 03:23:58;;;;;;;25.77;12.30;;;10.80;99.90;;;;;;5086647;28;20371;-83
2022/01/02 03:26:24;;;;;;;23.70;11.30;;;10.80;99.90;;;;;;5069221;28;20036;-83
2022/01/02 03:28:50;;;;;;;24.85;12.02;;;10.80;99.90;;;;;;5090490;28;20036;-83
2022/01/02 03:31:15;;;;;;;34.65;12.32;;;10.80;99.90;;;;;;5071453;27;20051;-83
2022/01/02 03:33:41;;;;;;;30.92;11.25;;;10.80;99.90;;;;;;5069057;28;20071;-84
2022/01/02 03:36:07;;;;;;;32.30;11.65;;;10.80;99.90;;;;;;5072562;28;20047;-83
2022/01/02 03:38:32;;;;;;;25.92;12.13;;;10.80;99.90;;;;;;5087732;28;20047;-83
2022/01/02 03:40:58;;;;;;;29.13;11.93;;;10.80;99.90;;;;;;5059301;28;20324;-84
2022/01/02 03:43:24;;;;;;;23.63;10.90;;;10.80;99.90;;;;;;5063304;28;20052;-84
2022/01/02 03:45:51;;;;;;;27.83;10.77;;;11.30;99.90;;;;;;5063796;28;20107;-83
2022/01/02 03:48:16;;;;;;;33.53;11.55;;;10.80;99.90;;;;;;5055171;28;20039;-83
2022/01/02 03:50:42;;;;;;;26.23;10.57;;;10.80;99.90;;;;;;5062339;28;20050;-84
2022/01/02 03:53:08;;;;;;;30.90;12.30;;;10.80;99.90;;;;;;5061301;28;20039;-84
2022/01/02 03:55:35;;;;;;;25.50;10.85;;;10.80;99.90;;;;;;5073041;28;20051;-85
2022/01/02 03:58:00;;;;;;;23.70;10.38;;;10.80;99.90;;;;;;5069387;28;20126;-85
2022/01/02 04:00:26;;;;;;;29.25;10.77;;;10.80;99.90;;;;;;5062721;28;20146;-84
2022/01/02 04:02:52;;;;;;;29.02;11.02;;;10.80;99.90;;;;;;5073079;28;20055;-84
2022/01/02 04:05:18;;;;;;;29.50;10.95;;;10.80;99.90;;;;;;5088606;28;20051;-85
2022/01/02 04:07:45;;;;;;;30.08;11.63;;;10.80;99.90;;;;;;5101367;27;20400;-84
2022/01/02 04:10:13;;;;;;;30.27;11.95;;;10.80;99.90;;;;;;5130077;27;20129;-85
2022/01/02 04:12:39;;;;;;;29.45;10.93;;;10.80;99.90;;;;;;5092726;27;20092;-86
2022/01/02 04:15:08;;;;;;;37.03;11.23;;;10.80;99.90;;;;;;5097969;27;20039;-83
2022/01/02 04:17:35;;;;;;;26.48;11.00;;;10.80;99.90;;;;;;5092381;27;20600;-83
2022/01/02 04:20:03;;;;;;;27.45;10.70;;;10.80;99.90;;;;;;5094626;27;20039;-83
2022/01/02 04:22:29;;;;;;;27.10;10.40;;;10.80;99.90;;;;;;5093889;27;20237;-83
2022/01/02 04:24:54;;;;;;;27.52;10.32;;;10.80;99.90;;;;;;5094946;27;20047;-82
2022/01/02 04:27:21;;;;;;;25.73;10.07;;;10.90;99.90;;;;;;5076591;27;20035;-82
2022/01/02 04:29:47;;;;;;;24.27;10.05;;;10.90;99.90;;;;;;5071761;27;20059;-82
2022/01/02 04:32:14;;;;;;;22.88;9.85;;;11.20;99.90;;;;;;5098680;27;20038;-83
2022/01/02 04:34:41;;;;;;;22.33;10.13;;;10.90;99.90;;;;;;5080895;27;20527;-82
2022/01/02 04:37:07;;;;;;;26.05;10.13;;;11.70;99.90;;;;;;5076873;27;20579;-81
2022/01/02 04:39:33;;;;;;;34.67;10.07;;;10.90;99.90;;;;;;5072452;27;20054;-82
2022/01/02 04:41:59;;;;;;;32.65;10.40;;;11.00;99.90;;;;;;5089714;27;20046;-82
2022/01/02 04:44:26;;;;;;;22.58;10.07;;;10.90;99.90;;;;;;5093087;27;20085;-82
2022/01/02 04:46:51;;;;;;;27.88;9.73;;;11.00;99.90;;;;;;5091084;27;20653;-83
2022/01/02 04:49:17;;;;;;;28.60;10.27;;;11.00;99.90;;;;;;5091741;27;20065;-82
2022/01/02 04:51:43;;;;;;;25.17;10.07;;;11.00;99.90;;;;;;5077876;27;20043;-83
2022/01/02 04:54:09;;;;;;;30.73;9.95;;;11.40;99.90;;;;;;5076334;27;20488;-83
2022/01/02 04:56:34;;;;;;;30.25;10.85;;;11.00;99.90;;;;;;5083350;28;20035;-83
2022/01/02 04:59:00;;;;;;;24.02;10.52;;;11.00;99.90;;;;;;5106017;27;20122;-84
2022/01/02 05:01:26;;;;;;;30.90;10.85;;;11.00;99.90;;;;;;5080392;28;20050;-83
2022/01/02 05:03:51;;;;;;;26.95;9.98;;;11.00;99.90;;;;;;5089928;27;20031;-83
2022/01/02 05:06:17;;;;;;;27.80;10.05;;;11.00;99.90;;;;;;5100064;28;20090;-84
2022/01/02 05:08:44;;;;;;;34.78;10.88;;;11.00;99.90;;;;;;5107876;28;20082;-83
2022/01/02 05:11:10;;;;;;;33.90;10.68;;;11.00;99.90;;;;;;5105006;28;20039;-84
2022/01/02 05:13:36;;;;;;;39.08;11.07;;;11.30;99.90;;;;;;5124104;27;20097;-83
2022/01/02 05:16:01;;;;;;;32.42;9.65;;;11.00;99.90;;;;;;5120502;27;20047;-84
2022/01/02 05:18:27;;;;;;;30.23;9.68;;;11.00;99.90;;;;;;5118025;28;20043;-83
2022/01/02 05:20:53;;;;;;;28.05;9.57;;;11.00;99.90;;;;;;5097304;28;20499;-83
2022/01/02 05:23:21;;;;;;;30.88;9.95;;;11.00;99.90;;;;;;5091170;28;20089;-83
2022/01/02 05:25:47;;;;;;;25.80;8.63;;;11.00;99.90;;;;;;5095855;28;20759;-83
2022/01/02 05:28:13;;;;;;;29.27;9.18;;;11.00;99.90;;;;;;5086232;28;20047;-83
2022/01/02 05:30:40;;;;;;;27.23;9.02;;;11.20;99.90;;;;;;5094100;27;20690;-83
2022/01/02 05:33:06;;;;;;;29.52;9.15;;;11.00;99.90;;;;;;5093662;27;20039;-83
2022/01/02 05:35:31;;;;;;;29.65;8.80;;;11.00;99.90;;;;;;5081789;28;20143;-83
2022/01/02 05:37:58;;;;;;;33.28;8.63;;;11.00;99.90;;;;;;5122389;27;20126;-83
2022/01/02 05:40:25;;;;;;;32.95;8.65;;;11.00;99.90;;;;;;5079308;28;20066;-83
2022/01/02 05:42:51;;;;;;;26.38;8.88;;;11.00;99.90;;;;;;5087065;28;20039;-84
2022/01/02 05:45:16;;;;;;;27.05;7.93;;;11.10;99.90;;;;;;5103862;28;20463;-83
2022/01/02 05:47:42;;;;;;;22.60;7.53;;;11.10;99.90;;;;;;5083737;28;20047;-83
2022/01/02 05:50:08;;;;;;;30.88;8.35;;;11.10;99.90;;;;;;5087080;28;20035;-83
2022/01/02 05:52:34;;;;;;;25.85;8.27;;;11.10;99.90;;;;;;5084000;28;20043;-83
2022/01/02 05:55:00;;;;;;;26.20;7.18;;;11.10;99.90;;;;;;5089066;28;20045;-83
2022/01/02 05:57:25;;;;;;;26.48;7.05;;;11.10;99.90;;;;;;5102512;28;20042;-84
2022/01/02 05:59:51;;;;;;;27.15;7.32;;;11.10;99.90;;;;;;5104906;28;20052;-82
2022/01/02 06:02:17;;;;;;;25.13;8.07;;;11.40;99.90;;;;;;5084563;27;20043;-84
2022/01/02 06:04:42;;;;;;;22.88;7.50;;;11.20;99.90;;;;;;5082851;28;20076;-83
2022/01/02 06:07:11;;;;;;;33.08;7.10;;;11.20;99.90;;;;;;5078015;28;20044;-83
2022/01/02 06:09:36;;;;;;;25.67;7.18;;;11.30;99.90;;;;;;5072533;28;20048;-83
2022/01/02 06:12:02;;;;;;;19.73;6.40;;;11.20;99.90;;;;;;5072535;28;20132;-83
2022/01/02 06:14:28;;;;;;;21.02;6.90;;;11.20;99.90;;;;;;5087011;28;20058;-84
2022/01/02 06:16:53;;;;;;;26.92;6.82;;;11.20;99.90;;;;;;5070906;28;20039;-83
2022/01/02 06:19:19;;;;;;;28.60;6.88;;;11.20;99.90;;;;;;5069328;28;20071;-83
2022/01/02 06:21:45;;;;;;;25.08;6.97;;;11.30;99.90;;;;;;5067389;28;20043;-83
2022/01/02 06:24:10;;;;;;;27.55;7.25;;;11.20;99.90;;;;;;5070256;28;20032;-82
2022/01/02 06:26:36;;;;;;;26.52;6.85;;;11.50;99.90;;;;;;5067910;28;20063;-82
2022/01/02 06:29:03;;;;;;;23.00;6.82;;;11.30;99.90;;;;;;5088926;28;20089;-82
2022/01/02 06:31:30;;;;;;;21.73;6.68;;;11.30;99.90;;;;;;5084345;28;20412;-83
2022/01/02 06:33:56;;;;;;;21.85;6.85;;;11.30;99.90;;;;;;5082335;28;20051;-82
2022/01/02 06:36:22;;;;;;;19.52;6.28;;;11.30;99.90;;;;;;5073034;28;20138;-84
2022/01/02 06:38:47;;;;;;;18.80;6.40;;;11.30;99.90;;;;;;5085239;28;20123;-82
2022/01/02 06:41:13;;;;;;;21.98;6.18;;;11.40;99.90;;;;;;5067772;28;20054;-82
2022/01/02 06:43:40;;;;;;;27.13;6.45;;;11.30;99.90;;;;;;5086649;28;20085;-83
2022/01/02 06:46:06;;;;;;;17.38;5.78;;;11.30;99.90;;;;;;5068858;28;20093;-82
2022/01/02 06:48:33;;;;;;;24.00;6.40;;;11.40;99.90;;;;;;5087733;28;20074;-82
2022/01/02 06:50:58;;;;;;;22.67;5.95;;;11.40;99.90;;;;;;5082448;28;20040;-82
2022/01/02 06:53:24;;;;;;;19.73;5.88;;;11.40;99.90;;;;;;5087682;28;20088;-82
2022/01/02 06:55:50;;;;;;;22.40;6.15;;;11.40;99.90;;;;;;5090305;28;20542;-83
2022/01/02 06:58:16;;;;;;;14.88;5.35;;;11.40;99.90;;;;;;5083016;28;20089;-82
2022/01/02 07:00:42;;;;;;;20.63;6.07;;;11.70;99.90;;;;;;5088808;28;20567;-83
2022/01/02 07:03:08;;;;;;;22.50;6.20;;;11.40;99.90;;;;;;5067406;28;20408;-82
2022/01/02 07:05:34;;;;;;;18.65;5.80;;;11.40;99.90;;;;;;5072246;28;20056;-82
2022/01/02 07:07:59;;;;;;;16.42;5.18;;;11.70;99.90;;;;;;5099230;27;20043;-82
2022/01/02 07:10:25;;;;;;;19.30;5.78;;;11.40;99.90;;;;;;5109876;27;20039;-82
2022/01/02 07:12:51;;;;;;;19.90;5.55;;;11.40;99.90;;;;;;5105051;27;20651;-82
2022/01/02 07:15:16;;;;;;;17.92;5.35;;;11.50;99.90;;;;;;5089165;27;20047;-82
2022/01/02 07:17:42;;;;;;;16.50;4.55;;;11.50;99.90;;;;;;5084661;27;20043;-82
2022/01/02 07:20:10;;;;;;;19.45;4.70;;;11.50;99.90;;;;;;5104667;27;20105;-82
2022/01/02 07:22:36;;;;;;;16.55;4.40;;;11.50;99.90;;;;;;5107773;27;20047;-82
2022/01/02 07:25:03;;;;;;;14.40;4.03;;;11.60;99.90;;;;;;5091423;27;20043;-82
2022/01/02 07:27:29;;;;;;;11.82;4.10;;;11.60;99.90;;;;;;5099800;27;20046;-83
2022/01/02 07:29:56;;;;;;;19.05;4.43;;;11.60;99.90;;;;;;5108250;27;20401;-82
2022/01/02 07:32:22;;;;;;;14.68;4.40;;;11.60;99.90;;;;;;5105967;27;20077;-81
2022/01/02 07:34:48;;;;;;;18.10;4.72;;;11.60;99.90;;;;;;5088317;27;20450;-81
2022/01/02 07:37:14;;;;;;;13.95;4.13;;;11.70;99.90;;;;;;5107493;27;20047;-82
2022/01/02 07:39:39;;;;;;;14.52;3.97;;;11.70;99.90;;;;;;5089460;27;20043;-82
2022/01/02 07:42:05;;;;;;;16.83;4.47;;;11.80;99.90;;;;;;5087480;27;20040;-83
2022/01/02 07:44:31;;;;;;;19.67;4.63;;;11.70;99.90;;;;;;5083530;27;20434;-82
2022/01/02 07:46:57;;;;;;;11.77;4.13;;;11.70;99.90;;;;;;5084165;27;20039;-85
2022/01/02 07:49:23;;;;;;;13.82;4.78;;;11.70;99.90;;;;;;5085631;27;20604;-83
2022/01/02 07:51:48;;;;;;;18.05;4.15;;;11.70;99.90;;;;;;5116933;27;20039;-83
2022/01/02 07:54:14;;;;;;;15.20;4.07;;;11.70;99.90;;;;;;5105567;27;20043;-82
2022/01/02 07:56:40;;;;;;;12.25;4.65;;;11.60;99.90;;;;;;5091776;27;20082;-81
2022/01/02 07:59:06;;;;;;;13.35;5.00;;;11.60;99.90;;;;;;5091541;27;20043;-82
2022/01/02 08:01:32;;;;;;;16.80;4.88;;;11.60;99.90;;;;;;5090501;27;20042;-83
2022/01/02 08:03:58;;;;;;;14.95;4.95;;;11.60;99.90;;;;;;5092129;27;20048;-82
2022/01/02 08:06:24;;;;;;;13.90;5.05;;;11.60;99.90;;;;;;5100434;27;20426;-84
2022/01/02 08:08:49;;;;;;;15.15;4.85;;;11.60;99.90;;;;;;5090437;27;20035;-82
2022/01/02 08:11:16;;;;;;;16.92;4.40;;;11.60;99.90;;;;;;5105813;27;20114;-81
2022/01/02 08:13:43;;;;;;;14.60;4.70;;;11.50;99.90;;;;;;5086818;27;20564;-81
2022/01/02 08:16:09;;;;;;;16.17;4.78;;;11.50;99.90;;;;;;5108258;27;20047;-81
2022/01/02 08:18:37;;;;;;;20.02;5.43;;;11.50;99.90;;;;;;5112839;27;20050;-82
2022/01/02 08:21:03;;;;;;;16.33;5.15;;;11.50;99.90;;;;;;5086950;28;20039;-83
2022/01/02 08:23:29;;;;;;;11.85;4.60;;;11.80;99.90;;;;;;5074708;27;20057;-81
2022/01/02 08:25:54;;;;;;;18.90;5.20;;;11.50;99.90;;;;;;5080545;27;20437;-81
2022/01/02 08:28:20;;;;;;;14.35;5.07;;;11.40;99.90;;;;;;5086851;28;20043;-82
2022/01/02 08:30:47;;;;;;;17.10;4.70;;;11.40;99.90;;;;;;5109459;27;20045;-83
2022/01/02 08:33:16;;;;;;;14.55;4.80;;;11.50;99.90;;;;;;5096798;27;20047;-83
2022/01/02 08:35:43;;;;;;;14.65;5.20;;;11.40;99.90;;;;;;5108738;27;20047;-82
2022/01/02 08:38:10;;;;;;;14.93;5.68;;;11.30;99.90;;;;;;5097280;27;20159;-83
2022/01/02 08:40:37;;;;;;;14.13;4.60;;;11.40;99.90;;;;;;5092793;27;20047;-82
2022/01/02 08:43:03;;;;;;;17.90;4.88;;;11.40;99.90;;;;;;5100587;27;20039;-80
2022/01/02 08:45:29;;;;;;;9.10;4.50;;;11.30;99.90;;;;;;5117611;27;20053;-80
2022/01/02 08:47:55;;;;;;;15.20;5.25;;;11.40;99.90;;;;;;5083381;27;20047;-80
2022/01/02 08:50:21;;;;;;;12.80;4.60;;;11.30;99.90;;;;;;5099543;27;20054;-80
2022/01/02 08:52:46;;;;;;;12.40;4.53;;;11.30;99.90;;;;;;5107339;27;20091;-77
2022/01/02 08:55:12;;;;;;;12.50;4.53;;;11.30;99.90;;;;;;5106931;27;20396;-78
2022/01/02 08:57:38;;;;;;;12.88;4.43;;;11.30;99.90;;;;;;5096973;28;20039;-79
2022/01/02 09:00:05;;;;;;;13.15;4.50;;;11.40;99.90;;;;;;5099882;28;20161;-77
2022/01/02 09:02:30;;;;;;;10.13;3.53;;;11.20;99.90;;;;;;5102513;28;20043;-78
2022/01/02 09:04:56;;;;;;;10.52;3.92;;;11.20;99.90;;;;;;5097110;27;20055;-78
2022/01/02 09:07:22;;;;;;;12.40;4.53;;;11.20;99.90;;;;;;5081232;27;20396;-80
2022/01/02 09:09:48;;;;;;;14.10;4.25;;;11.20;99.90;;;;;;5090024;27;20079;-80
2022/01/02 09:12:14;;;;;;;14.30;5.43;;;11.20;99.90;;;;;;5092067;27;20048;-77
2022/01/02 09:14:41;;;;;;;12.18;5.00;;;11.20;99.90;;;;;;5084036;27;20127;-79
2022/01/02 09:17:07;;;;;;;12.48;5.30;;;11.20;99.90;;;;;;5086692;27;20035;-80
2022/01/02 09:19:36;;;;;;;16.80;5.88;;;11.20;99.90;;;;;;5098760;27;20108;-79
2022/01/02 09:22:03;;;;;;;15.23;6.22;;;11.20;99.90;;;;;;5075908;27;20062;-80
2022/01/02 09:24:29;;;;;;;16.13;5.53;;;11.20;99.90;;;;;;5087420;27;20089;-79
2022/01/02 09:26:55;;;;;;;15.73;5.75;;;11.20;99.90;;;;;;5076625;27;20412;-79
2022/01/02 09:29:21;;;;;;;15.68;5.75;;;11.20;99.90;;;;;;5070376;27;20043;-79
2022/01/02 09:31:47;;;;;;;14.40;6.53;;;11.20;99.90;;;;;;5096918;28;20077;-80
2022/01/02 09:34:12;;;;;;;12.57;5.63;;;11.10;99.90;;;;;;5121966;27;20145;-79
2022/01/02 09:36:41;;;;;;;14.57;5.57;;;11.10;99.90;;;;;;5097327;28;20139;-80
2022/01/02 09:39:07;;;;;;;13.50;5.50;;;11.10;99.90;;;;;;5077839;27;20035;-79
2022/01/02 09:41:33;;;;;;;14.55;6.35;;;11.10;99.90;;;;;;5083869;28;20484;-81
2022/01/02 09:43:59;;;;;;;14.75;5.97;;;11.10;99.90;;;;;;5093246;27;20046;-81
2022/01/02 09:46:27;;;;;;;11.95;6.45;;;11.10;99.90;;;;;;5070754;27;20054;-82
2022/01/02 09:48:54;;;;;;;13.85;6.35;;;11.30;99.90;;;;;;5093651;27;20047;-82
2022/01/02 09:51:24;;;;;;;14.02;6.50;;;11.10;99.90;;;;;;5094439;27;20235;-82
2022/01/02 09:53:51;;;;;;;16.48;6.90;;;11.10;99.90;;;;;;5099381;27;20038;-81
2022/01/02 09:56:17;;;;;;;14.93;6.47;;;11.10;99.90;;;;;;5092466;27;20042;-81
2022/01/02 09:58:44;;;;;;;18.08;6.30;;;11.00;99.90;;;;;;5091413;27;20139;-80
2022/01/02 10:01:18;;;;;;;13.75;6.43;;;11.10;99.90;;;;;;5074324;27;20442;-82
2022/01/02 10:03:46;;;;;;;13.40;7.05;;;11.10;99.90;;;;;;5079894;27;20357;-82
2022/01/02 10:06:12;;;;;;;12.80;5.70;;;11.00;99.90;;;;;;5076700;27;20455;-82
2022/01/02 10:08:38;;;;;;;15.77;6.63;;;11.00;99.90;;;;;;5069915;27;20058;-82
2022/01/02 10:11:20;;;;;;;17.75;6.88;;;11.00;99.90;;;;;;5110868;27;20424;-81
2022/01/02 10:13:54;;;;;;;19.15;7.30;;;11.00;99.90;;;;;;5095558;27;20043;-82
2022/01/02 10:16:31;;;;;;;19.75;7.13;;;11.00;99.90;;;;;;5077360;27;20186;-80
2022/01/02 10:18:59;;;;;;;18.83;6.30;;;11.00;99.90;;;;;;5079503;27;20047;-83
2022/01/02 10:21:28;;;;;;;14.07;6.32;;;11.00;99.90;;;;;;5088864;27;20055;-80
2022/01/02 10:24:14;;;;;;;13.80;6.78;;;11.00;99.90;;;;;;5088126;27;20035;-82
2022/01/02 10:27:01;;;;;;;20.10;6.90;;;11.00;99.90;;;;;;5080346;27;20550;-82
2022/01/02 10:29:27;;;;;;;22.05;7.45;;;11.00;99.90;;;;;;5077625;27;20383;-80
2022/01/02 10:31:53;;;;;;;16.48;6.88;;;11.30;99.90;;;;;;5076055;27;20039;-81
2022/01/02 10:34:30;;;;;;;16.73;6.95;;;11.00;99.90;;;;;;5092953;27;20059;-81
2022/01/02 10:36:56;;;;;;;17.48;6.40;;;11.10;99.90;;;;;;5094569;27;20043;-80
2022/01/02 10:39:22;;;;;;;24.85;6.93;;;11.10;99.90;;;;;;5108747;27;20081;-81
2022/01/02 10:41:51;;;;;;;25.73;6.70;;;11.10;99.90;;;;;;5089077;27;20047;-82
2022/01/02 10:44:26;;;;;;;23.85;7.40;;;11.10;99.90;;;;;;5104188;27;20093;-81
2022/01/02 10:47:17;;;;;;;19.20;7.05;;;11.10;99.90;;;;;;5086175;27;20796;-81
2022/01/02 10:49:52;;;;;;;18.55;7.55;;;11.10;99.90;;;;;;5129855;27;20052;-81
2022/01/02 10:52:21;;;;;;;14.48;6.38;;;11.10;99.90;;;;;;5076991;27;20377;-84
2022/01/02 10:54:47;;;;;;;18.73;5.75;;;11.10;99.90;;;;;;5074246;27;20131;-81
2022/01/02 10:57:13;;;;;;;24.23;6.50;;;11.30;99.90;;;;;;5089213;27;20047;-85
2022/01/02 10:59:41;;;;;;;22.63;5.93;;;11.10;99.90;;;;;;5091597;27;20130;-83
2022/01/02 11:02:10;;;;;;;17.02;5.00;;;11.10;99.90;;;;;;5096640;27;20042;-82
2022/01/02 11:04:38;;;;;;;19.83;5.28;;;11.20;99.90;;;;;;5095115;27;20059;-82
2022/01/02 11:07:06;;;;;;;22.67;5.78;;;11.10;99.90;;;;;;5095855;27;20416;-84
2022/01/02 11:13:21;;;;;;;25.00;5.47;;;11.20;99.90;;;;;;4279858;26;20094;-73
2022/01/02 11:15:48;;;;;;;14.10;5.00;;;11.20;99.90;;;;;;5076319;28;20091;-74
2022/01/02 11:18:14;;;;;;;20.98;5.38;;;11.20;99.90;;;;;;5066564;28;20142;-72
2022/01/02 11:20:41;;;;;;;15.95;5.00;;;11.20;99.90;;;;;;5079101;28;20078;-71
2022/01/02 11:23:25;;;;;;;14.32;4.55;;;11.20;99.90;;;;;;5077694;28;20043;-73
2022/01/02 11:26:07;;;;;;;15.95;4.90;;;11.20;99.90;;;;;;5060504;28;20770;-73
2022/01/02 11:28:37;;;;;;;19.17;5.20;;;11.30;99.90;;;;;;5080162;28;20512;-72
2022/01/02 11:31:05;;;;;;;19.77;4.63;;;11.20;99.90;;;;;;5082178;28;20096;-74
2022/01/02 11:33:39;;;;;;;19.30;4.70;;;11.20;99.90;;;;;;5062891;28;20562;-73
2022/01/02 11:36:24;;;;;;;21.15;4.95;;;11.20;99.90;;;;;;5080872;28;20086;-72
2022/01/02 11:39:02;;;;;;;18.92;5.22;;;11.20;99.90;;;;;;5076925;28;20043;-73
2022/01/02 11:41:42;;;;;;;20.67;4.50;;;11.20;99.90;;;;;;5075087;28;20044;-73
2022/01/02 11:44:12;;;;;;;17.13;5.55;;;11.20;99.90;;;;;;5060730;28;20245;-71
2022/01/02 11:46:57;;;;;;;14.60;4.55;;;11.20;99.90;;;;;;5077542;28;20054;-72
2022/01/02 11:49:40;;;;;;;15.75;4.25;;;11.20;99.90;;;;;;5083936;28;20503;-73
2022/01/02 11:52:07;;;;;;;15.30;4.28;;;11.20;99.90;;;;;;5061224;28;20535;-74
2022/01/02 11:54:35;;;;;;;19.95;4.32;;;11.20;99.90;;;;;;5083163;28;20047;-73
2022/01/02 11:57:03;;;;;;;13.45;4.13;;;11.20;99.90;;;;;;5077701;28;20524;-73
2022/01/02 11:59:44;;;;;;;15.38;4.13;;;11.20;99.90;;;;;;5078308;28;20059;-72
2022/01/02 12:02:30;;;;;;;20.10;4.20;;;11.10;99.90;;;;;;5065613;28;20164;-72
2022/01/02 12:04:59;;;;;;;21.17;4.47;;;11.10;99.90;;;;;;5076544;28;20055;-73
2022/01/02 12:07:37;;;;;;;16.95;4.47;;;11.10;99.90;;;;;;5074597;28;20044;-73
2022/01/02 12:10:22;;;;;;;22.23;4.72;;;11.10;99.90;;;;;;5074768;28;20075;-73
2022/01/02 12:15:24;;;;;;;22.08;4.10;;;11.00;99.90;;;;;;5082545;28;20051;-75
2022/01/02 12:18:08;;;;;;;24.77;4.63;;;11.10;99.90;;;;;;5069421;28;20040;-77
2022/01/02 12:20:52;;;;;;;19.10;3.88;;;11.10;99.90;;;;;;5066140;28;20051;-73
2022/01/02 12:23:33;;;;;;;19.73;3.83;;;11.00;99.90;;;;;;5072911;28;20040;-73
2022/01/02 12:26:00;;;;;;;18.13;3.42;;;11.10;99.90;;;;;;5075697;28;20063;-75
2022/01/02 12:28:29;;;;;;;24.15;3.53;;;11.10;99.90;;;;;;5074480;28;20455;-76
2022/01/02 12:30:56;;;;;;;18.05;3.97;;;11.20;99.90;;;;;;5055443;28;20047;-75
2022/01/02 12:33:26;;;;;;;21.27;3.83;;;11.10;99.90;;;;;;5074885;28;20504;-76
2022/01/02 12:35:52;;;;;;;11.07;2.92;;;11.10;99.90;;;;;;5071212;28;20048;-75
2022/01/02 12:38:18;;;;;;;19.52;4.18;;;11.10;99.90;;;;;;5060445;28;20048;-71
2022/01/02 12:40:44;;;;;;;19.90;3.65;;;11.20;99.90;;;;;;5057944;28;20035;-73
2022/01/02 12:43:11;;;;;;;19.48;3.40;;;11.10;99.90;;;;;;5074502;28;20352;-72
2022/01/02 12:45:38;;;;;;;21.17;3.70;;;11.20;99.90;;;;;;5072407;28;20111;-71
2022/01/02 12:48:04;;;;;;;23.33;3.58;;;11.20;99.90;;;;;;5075299;28;20062;-71
2022/01/02 12:50:32;;;;;;;17.10;3.58;;;11.20;99.90;;;;;;5061255;28;20080;-70
2022/01/02 12:52:58;;;;;;;19.65;3.72;;;11.20;99.90;;;;;;5088686;28;20052;-71